createdAt,value
2017-03-19T00:00:02.821Z,0
2017-03-19T00:01:14.053Z,0
2017-03-19T00:02:25.286Z,0
2017-03-19T00:03:36.385Z,0
2017-03-19T00:04:47.417Z,0
2017-03-19T00:05:58.442Z,0
2017-03-19T00:07:09.477Z,0
2017-03-19T00:08:20.909Z,0
2017-03-19T00:09:31.938Z,0
2017-03-19T00:10:42.969Z,0
2017-03-19T00:11:53.995Z,0
2017-03-19T00:13:05.028Z,0
2017-03-19T00:14:16.320Z,0
2017-03-19T00:15:27.543Z,0
2017-03-19T00:16:38.571Z,0
2017-03-19T00:17:49.798Z,0
2017-03-19T00:19:00.835Z,0
2017-03-19T00:20:11.864Z,0
2017-03-19T00:21:23.094Z,0
2017-03-19T00:22:34.125Z,0
2017-03-19T00:23:45.169Z,0
2017-03-19T00:24:56.445Z,0
2017-03-19T00:26:07.469Z,0
2017-03-19T00:27:18.697Z,0
2017-03-19T00:28:29.734Z,0
2017-03-19T00:29:40.961Z,0
2017-03-19T00:30:52.192Z,0
2017-03-19T00:32:03.250Z,0
2017-03-19T00:33:14.276Z,0
2017-03-19T00:34:25.316Z,0
2017-03-19T00:35:36.336Z,0
2017-03-19T00:36:47.355Z,0
2017-03-19T00:37:58.413Z,0
2017-03-19T00:39:09.473Z,0
2017-03-19T00:40:20.505Z,0
2017-03-19T00:41:31.532Z,0
2017-03-19T00:42:42.560Z,0
2017-03-19T00:43:53.597Z,0
2017-03-19T00:45:04.654Z,0
2017-03-19T00:46:15.744Z,0
2017-03-19T00:47:26.777Z,0
2017-03-19T00:48:37.821Z,0
2017-03-19T00:49:48.854Z,0
2017-03-19T00:50:59.885Z,0
2017-03-19T00:52:10.935Z,0
2017-03-19T00:53:21.969Z,0
2017-03-19T00:54:33.003Z,0
2017-03-19T00:55:44.241Z,0
2017-03-19T00:56:55.318Z,0
2017-03-19T00:58:06.363Z,0
2017-03-19T00:59:17.393Z,0
2017-03-19T01:00:28.431Z,0
2017-03-19T01:01:39.660Z,0
2017-03-19T01:02:50.751Z,0
2017-03-19T01:04:01.792Z,0
2017-03-19T01:05:12.817Z,0
2017-03-19T01:06:24.046Z,0
2017-03-19T01:07:35.128Z,0
2017-03-19T01:08:46.190Z,0
2017-03-19T01:09:57.227Z,0
2017-03-19T01:11:08.252Z,0
2017-03-19T01:12:19.276Z,0
2017-03-19T01:13:30.509Z,0
2017-03-19T01:14:41.542Z,0
2017-03-19T01:15:52.566Z,0
2017-03-19T01:17:03.598Z,0
2017-03-19T01:18:14.686Z,0
2017-03-19T01:19:25.725Z,0
2017-03-19T01:20:36.765Z,0
2017-03-19T01:21:47.790Z,0
2017-03-19T01:22:58.828Z,0
2017-03-19T01:24:09.881Z,0
2017-03-19T01:25:20.910Z,0
2017-03-19T01:26:31.936Z,0
2017-03-19T01:27:42.965Z,0
2017-03-19T01:28:54.448Z,0
2017-03-19T01:30:05.480Z,0
2017-03-19T01:31:16.508Z,0
2017-03-19T01:32:27.569Z,0
2017-03-19T01:33:38.601Z,0
2017-03-19T01:34:49.824Z,0
2017-03-19T01:36:00.845Z,0
2017-03-19T01:37:12.073Z,0
2017-03-19T01:38:23.298Z,0
2017-03-19T01:39:34.382Z,0
2017-03-19T01:40:45.404Z,0
2017-03-19T01:41:56.423Z,0
2017-03-19T01:43:07.659Z,0
2017-03-19T01:44:18.698Z,0
2017-03-19T01:45:29.728Z,0
2017-03-19T01:46:40.756Z,0
2017-03-19T01:47:51.813Z,0
2017-03-19T01:49:02.843Z,0
2017-03-19T01:50:14.326Z,0
2017-03-19T01:51:25.350Z,0
2017-03-19T01:52:36.381Z,0
2017-03-19T01:53:47.612Z,0
2017-03-19T01:54:58.674Z,0
2017-03-19T01:56:09.710Z,0
2017-03-19T01:57:20.735Z,0
2017-03-19T01:58:31.969Z,0
2017-03-19T01:59:43.197Z,0
2017-03-19T02:00:54.289Z,0
2017-03-19T02:02:05.313Z,0
2017-03-19T02:03:16.346Z,0
2017-03-19T02:04:27.378Z,0
2017-03-19T02:05:38.408Z,0
2017-03-19T02:06:49.692Z,0
2017-03-19T02:08:00.927Z,0
2017-03-19T02:09:12.159Z,0
2017-03-19T02:10:23.179Z,0
2017-03-19T02:11:34.203Z,0
2017-03-19T02:12:45.243Z,0
2017-03-19T02:13:56.272Z,0
2017-03-19T02:15:07.383Z,0
2017-03-19T02:16:18.415Z,0
2017-03-19T02:17:29.496Z,0
2017-03-19T02:18:40.533Z,0
2017-03-19T02:19:51.568Z,0
2017-03-19T02:21:02.792Z,0
2017-03-19T02:22:13.818Z,0
2017-03-19T02:23:24.843Z,0
2017-03-19T02:24:36.274Z,0
2017-03-19T02:25:47.295Z,0
2017-03-19T02:26:58.325Z,0
2017-03-19T02:28:09.394Z,0
2017-03-19T02:29:20.428Z,0
2017-03-19T02:30:31.460Z,0
2017-03-19T02:31:42.484Z,0
2017-03-19T02:32:53.511Z,0
2017-03-19T02:34:04.739Z,0
2017-03-19T02:35:15.757Z,0
2017-03-19T02:36:26.787Z,0
2017-03-19T02:37:37.813Z,0
2017-03-19T02:38:48.897Z,0
2017-03-19T02:40:00.327Z,0
2017-03-19T02:41:11.557Z,0
2017-03-19T02:42:22.775Z,0
2017-03-19T02:43:33.813Z,0
2017-03-19T02:44:44.855Z,0
2017-03-19T02:45:55.888Z,0
2017-03-19T02:47:07.112Z,0
2017-03-19T02:48:18.140Z,0
2017-03-19T02:49:29.453Z,0
2017-03-19T02:50:40.484Z,0
2017-03-19T02:51:51.709Z,0
2017-03-19T02:53:02.741Z,0
2017-03-19T02:54:13.764Z,0
2017-03-19T02:55:25.053Z,0
2017-03-19T02:56:36.288Z,0
2017-03-19T02:57:47.527Z,0
2017-03-19T02:58:58.760Z,0
2017-03-19T03:00:09.801Z,0
2017-03-19T03:01:20.820Z,0
2017-03-19T03:02:31.841Z,0
2017-03-19T03:03:43.070Z,0
2017-03-19T03:04:54.097Z,0
2017-03-19T03:06:05.374Z,0
2017-03-19T03:07:16.401Z,0
2017-03-19T03:08:27.434Z,0
2017-03-19T03:09:38.666Z,0
2017-03-19T03:10:49.685Z,0
2017-03-19T03:12:00.715Z,0
2017-03-19T03:13:11.743Z,0
2017-03-19T03:14:22.967Z,0
2017-03-19T03:15:33.994Z,0
2017-03-19T03:16:45.302Z,0
2017-03-19T03:17:56.335Z,0
2017-03-19T03:19:07.380Z,0
2017-03-19T03:20:18.419Z,0
2017-03-19T03:21:29.652Z,0
2017-03-19T03:22:40.885Z,0
2017-03-19T03:23:52.109Z,0
2017-03-19T03:25:03.335Z,0
2017-03-19T03:26:14.351Z,0
2017-03-19T03:27:25.829Z,0
2017-03-19T03:28:36.864Z,0
2017-03-19T03:29:47.905Z,0
2017-03-19T03:30:58.926Z,0
2017-03-19T03:32:09.958Z,0
2017-03-19T03:33:20.994Z,0
2017-03-19T03:34:32.235Z,0
2017-03-19T03:35:43.252Z,0
2017-03-19T03:36:54.276Z,0
2017-03-19T03:38:05.600Z,0
2017-03-19T03:39:16.831Z,0
2017-03-19T03:40:27.855Z,0
2017-03-19T03:41:38.881Z,0
2017-03-19T03:42:49.948Z,0
2017-03-19T03:44:00.983Z,0
2017-03-19T03:45:12.006Z,0
2017-03-19T03:46:23.024Z,0
2017-03-19T03:47:34.047Z,0
2017-03-19T03:48:45.119Z,0
2017-03-19T03:49:56.547Z,0
2017-03-19T03:51:07.566Z,0
2017-03-19T03:52:18.589Z,0
2017-03-19T03:53:29.628Z,0
2017-03-19T03:54:40.943Z,0
2017-03-19T03:55:51.971Z,0
2017-03-19T03:57:02.986Z,0
2017-03-19T03:58:14.003Z,0
2017-03-19T03:59:25.030Z,0
2017-03-19T04:00:36.064Z,0
2017-03-19T04:01:47.086Z,0
2017-03-19T04:02:58.332Z,0
2017-03-19T04:04:09.559Z,0
2017-03-19T04:05:20.839Z,0
2017-03-19T04:06:31.871Z,0
2017-03-19T04:07:43.114Z,0
2017-03-19T04:08:54.143Z,0
2017-03-19T04:10:05.185Z,0
2017-03-19T04:11:16.413Z,0
2017-03-19T04:12:27.645Z,0
2017-03-19T04:13:38.696Z,0
2017-03-19T04:14:49.730Z,0
2017-03-19T04:16:01.247Z,0
2017-03-19T04:17:12.278Z,0
2017-03-19T04:18:23.508Z,0
2017-03-19T04:19:34.544Z,0
2017-03-19T04:20:45.776Z,0
2017-03-19T04:21:56.813Z,0
2017-03-19T04:23:08.048Z,0
2017-03-19T04:24:19.094Z,0
2017-03-19T04:25:30.113Z,0
2017-03-19T04:26:41.196Z,0
2017-03-19T04:27:52.429Z,0
2017-03-19T04:29:03.664Z,0
2017-03-19T04:30:14.691Z,0
2017-03-19T04:31:25.724Z,0
2017-03-19T04:32:36.750Z,0
2017-03-19T04:33:47.833Z,0
2017-03-19T04:34:58.861Z,0
2017-03-19T04:36:10.097Z,0
2017-03-19T04:37:21.169Z,0
2017-03-19T04:38:32.414Z,0
2017-03-19T04:39:43.475Z,0
2017-03-19T04:40:54.502Z,0
2017-03-19T04:42:05.524Z,0
2017-03-19T04:43:16.750Z,0
2017-03-19T04:44:27.775Z,0
2017-03-19T04:45:38.796Z,0
2017-03-19T04:46:49.829Z,0
2017-03-19T04:48:01.367Z,0
2017-03-19T04:49:12.397Z,0
2017-03-19T04:50:23.820Z,0
2017-03-19T04:51:34.854Z,0
2017-03-19T04:52:45.892Z,0
2017-03-19T04:53:56.926Z,0
2017-03-19T04:55:07.952Z,0
2017-03-19T04:56:18.987Z,0
2017-03-19T04:57:30.024Z,0
2017-03-19T04:58:41.114Z,0
2017-03-19T04:59:52.137Z,0
2017-03-19T05:01:03.165Z,0
2017-03-19T05:02:14.592Z,0
2017-03-19T05:03:25.620Z,0
2017-03-19T05:04:36.655Z,0
2017-03-19T05:05:47.879Z,0
2017-03-19T05:06:58.904Z,0
2017-03-19T05:08:09.935Z,0
2017-03-19T05:09:21.023Z,0
2017-03-19T05:10:32.042Z,0
2017-03-19T05:11:43.057Z,0
2017-03-19T05:12:54.076Z,0
2017-03-19T05:14:05.102Z,0
2017-03-19T05:15:16.337Z,0
2017-03-19T05:16:27.559Z,0
2017-03-19T05:17:38.605Z,0
2017-03-19T05:18:49.632Z,0
2017-03-19T05:20:00.659Z,0
2017-03-19T05:21:11.690Z,0
2017-03-19T05:22:22.912Z,0
2017-03-19T05:23:33.951Z,0
2017-03-19T05:24:44.979Z,0
2017-03-19T05:25:56.065Z,0
2017-03-19T05:27:07.092Z,0
2017-03-19T05:28:18.122Z,0
2017-03-19T05:29:29.169Z,0
2017-03-19T05:30:40.191Z,0
2017-03-19T05:31:51.413Z,0
2017-03-19T05:33:02.445Z,0
2017-03-19T05:34:13.670Z,0
2017-03-19T05:35:24.710Z,0
2017-03-19T05:36:35.777Z,0
2017-03-19T05:37:46.809Z,0
2017-03-19T05:38:57.847Z,0
2017-03-19T05:40:09.082Z,0
2017-03-19T05:41:20.114Z,0
2017-03-19T05:42:31.346Z,0
2017-03-19T05:43:42.388Z,0
2017-03-19T05:44:53.613Z,0
2017-03-19T05:46:04.641Z,5
2017-03-19T05:47:15.926Z,5
2017-03-19T05:48:26.974Z,5
2017-03-19T05:49:38.006Z,5
2017-03-19T05:50:49.032Z,5
2017-03-19T05:52:00.059Z,5
2017-03-19T05:53:11.096Z,5
2017-03-19T05:54:22.371Z,5
2017-03-19T05:55:33.384Z,5
2017-03-19T05:56:44.422Z,10
2017-03-19T05:57:55.492Z,10
2017-03-19T05:59:06.530Z,15
2017-03-19T06:00:17.559Z,15
2017-03-19T06:01:28.578Z,15
2017-03-19T06:02:39.616Z,15
2017-03-19T06:03:50.861Z,15
2017-03-19T06:05:01.893Z,20
2017-03-19T06:06:12.919Z,20
2017-03-19T06:07:23.949Z,15
2017-03-19T06:08:34.975Z,15
2017-03-19T06:09:46.006Z,20
2017-03-19T06:10:57.032Z,15
2017-03-19T06:12:08.053Z,15
2017-03-19T06:13:19.079Z,15
2017-03-19T06:14:30.397Z,15
2017-03-19T06:15:41.468Z,20
2017-03-19T06:16:52.498Z,20
2017-03-19T06:18:03.556Z,15
2017-03-19T06:19:14.589Z,15
2017-03-19T06:20:25.816Z,15
2017-03-19T06:21:36.839Z,20
2017-03-19T06:22:47.873Z,25
2017-03-19T06:23:59.100Z,25
2017-03-19T06:25:10.183Z,25
2017-03-19T06:26:21.209Z,20
2017-03-19T06:27:32.237Z,25
2017-03-19T06:28:43.276Z,25
2017-03-19T06:29:54.513Z,25
2017-03-19T06:31:05.537Z,30
2017-03-19T06:32:16.559Z,30
2017-03-19T06:33:27.589Z,30
2017-03-19T06:34:38.637Z,30
2017-03-19T06:35:49.714Z,30
2017-03-19T06:37:00.742Z,35
2017-03-19T06:38:11.963Z,35
2017-03-19T06:39:23.185Z,35
2017-03-19T06:40:34.208Z,35
2017-03-19T06:41:45.245Z,30
2017-03-19T06:42:56.478Z,40
2017-03-19T06:44:07.700Z,40
2017-03-19T06:45:18.733Z,40
2017-03-19T06:46:29.961Z,45
2017-03-19T06:47:40.991Z,45
2017-03-19T06:48:52.009Z,45
2017-03-19T06:50:03.034Z,55
2017-03-19T06:51:14.058Z,45
2017-03-19T06:52:25.085Z,50
2017-03-19T06:53:36.150Z,55
2017-03-19T06:54:47.183Z,55
2017-03-19T06:55:58.412Z,50
2017-03-19T06:57:09.696Z,50
2017-03-19T06:58:20.932Z,45
2017-03-19T06:59:31.952Z,45
2017-03-19T07:00:43.203Z,45
2017-03-19T07:01:54.233Z,35
2017-03-19T07:03:05.267Z,35
2017-03-19T07:04:16.494Z,30
2017-03-19T07:05:27.549Z,35
2017-03-19T07:06:38.776Z,30
2017-03-19T07:07:49.892Z,30
2017-03-19T07:09:00.933Z,30
2017-03-19T07:10:11.965Z,30
2017-03-19T07:11:23.021Z,25
2017-03-19T07:12:34.042Z,30
2017-03-19T07:13:45.069Z,35
2017-03-19T07:14:56.092Z,35
2017-03-19T07:16:07.128Z,50
2017-03-19T07:17:18.183Z,45
2017-03-19T07:18:29.259Z,40
2017-03-19T07:19:40.481Z,45
2017-03-19T07:20:51.542Z,40
2017-03-19T07:22:02.570Z,40
2017-03-19T07:23:13.809Z,40
2017-03-19T07:24:24.844Z,55
2017-03-19T07:25:35.872Z,55
2017-03-19T07:26:46.906Z,55
2017-03-19T07:27:58.346Z,50
2017-03-19T07:29:09.683Z,50
2017-03-19T07:30:20.718Z,50
2017-03-19T07:31:31.752Z,45
2017-03-19T07:32:42.786Z,50
2017-03-19T07:33:54.015Z,45
2017-03-19T07:35:05.049Z,45
2017-03-19T07:36:16.078Z,45
2017-03-19T07:37:27.117Z,50
2017-03-19T07:38:38.179Z,50
2017-03-19T07:39:49.221Z,50
2017-03-19T07:41:00.239Z,45
2017-03-19T07:42:11.508Z,55
2017-03-19T07:43:22.550Z,60
2017-03-19T07:44:33.597Z,80
2017-03-19T07:45:44.871Z,75
2017-03-19T07:46:55.893Z,80
2017-03-19T07:48:07.136Z,85
2017-03-19T07:49:18.166Z,80
2017-03-19T07:50:29.206Z,110
2017-03-19T07:51:40.233Z,125
2017-03-19T07:52:51.274Z,145
2017-03-19T07:54:02.296Z,100
2017-03-19T07:55:13.529Z,110
2017-03-19T07:56:24.807Z,85
2017-03-19T07:57:36.250Z,95
2017-03-19T07:58:47.496Z,100
2017-03-19T07:59:58.537Z,95
2017-03-19T08:01:09.566Z,95
2017-03-19T08:02:20.600Z,90
2017-03-19T08:03:31.660Z,105
2017-03-19T08:04:42.895Z,115
2017-03-19T08:05:53.916Z,95
2017-03-19T08:07:05.008Z,110
2017-03-19T08:08:16.040Z,120
2017-03-19T08:09:27.062Z,120
2017-03-19T08:10:38.077Z,115
2017-03-19T08:11:49.099Z,110
2017-03-19T08:13:00.135Z,100
2017-03-19T08:14:11.169Z,100
2017-03-19T08:15:22.200Z,90
2017-03-19T08:16:33.225Z,80
2017-03-19T08:17:44.502Z,90
2017-03-19T08:18:55.736Z,80
2017-03-19T08:20:06.778Z,70
2017-03-19T08:21:17.804Z,80
2017-03-19T08:22:28.834Z,70
2017-03-19T08:23:39.863Z,55
2017-03-19T08:24:51.310Z,65
2017-03-19T08:26:02.366Z,60
2017-03-19T08:27:13.596Z,60
2017-03-19T08:28:24.694Z,60
2017-03-19T08:29:35.735Z,65
2017-03-19T08:30:46.960Z,65
2017-03-19T08:31:57.995Z,70
2017-03-19T08:33:09.031Z,70
2017-03-19T08:34:20.066Z,65
2017-03-19T08:35:31.299Z,60
2017-03-19T08:36:42.323Z,80
2017-03-19T08:37:53.555Z,80
2017-03-19T08:39:04.631Z,100
2017-03-19T08:40:15.660Z,100
2017-03-19T08:41:26.723Z,75
2017-03-19T08:42:37.768Z,95
2017-03-19T08:43:49.010Z,80
2017-03-19T08:45:00.047Z,75
2017-03-19T08:46:11.074Z,80
2017-03-19T08:47:22.110Z,85
2017-03-19T08:48:33.140Z,90
2017-03-19T08:49:44.257Z,85
2017-03-19T08:50:55.282Z,80
2017-03-19T08:52:06.718Z,70
2017-03-19T08:53:17.747Z,60
2017-03-19T08:54:28.777Z,70
2017-03-19T08:55:40.000Z,70
2017-03-19T08:56:51.225Z,75
2017-03-19T08:58:02.256Z,90
2017-03-19T08:59:13.288Z,85
2017-03-19T09:00:24.321Z,90
2017-03-19T09:01:35.350Z,90
2017-03-19T09:02:46.383Z,85
2017-03-19T09:03:57.426Z,100
2017-03-19T09:05:08.504Z,95
2017-03-19T09:06:19.532Z,90
2017-03-19T09:07:30.553Z,90
2017-03-19T09:08:41.588Z,95
2017-03-19T09:09:52.631Z,90
2017-03-19T09:11:03.861Z,70
2017-03-19T09:12:14.886Z,70
2017-03-19T09:13:26.108Z,75
2017-03-19T09:14:37.136Z,75
2017-03-19T09:15:48.221Z,80
2017-03-19T09:16:59.244Z,85
2017-03-19T09:18:10.274Z,70
2017-03-19T09:19:21.515Z,60
2017-03-19T09:20:32.545Z,60
2017-03-19T09:21:43.767Z,55
2017-03-19T09:22:54.799Z,55
2017-03-19T09:24:05.837Z,60
2017-03-19T09:25:16.874Z,60
2017-03-19T09:26:27.952Z,55
2017-03-19T09:27:38.990Z,60
2017-03-19T09:28:50.029Z,55
2017-03-19T09:30:01.065Z,60
2017-03-19T09:31:12.090Z,60
2017-03-19T09:32:23.121Z,55
2017-03-19T09:33:34.361Z,55
2017-03-19T09:34:45.402Z,50
2017-03-19T09:35:56.426Z,60
2017-03-19T09:37:07.709Z,50
2017-03-19T09:38:18.750Z,45
2017-03-19T09:39:29.785Z,55
2017-03-19T09:40:41.022Z,60
2017-03-19T09:41:52.050Z,55
2017-03-19T09:43:03.095Z,60
2017-03-19T09:44:14.124Z,60
2017-03-19T09:45:25.159Z,65
2017-03-19T09:46:36.195Z,70
2017-03-19T09:47:47.271Z,75
2017-03-19T09:48:58.311Z,70
2017-03-19T09:50:09.742Z,65
2017-03-19T09:51:20.971Z,75
2017-03-19T09:52:32.007Z,75
2017-03-19T09:53:43.053Z,105
2017-03-19T09:54:54.084Z,115
2017-03-19T09:56:05.113Z,115
2017-03-19T09:57:16.136Z,100
2017-03-19T09:58:27.169Z,95
2017-03-19T09:59:38.208Z,110
2017-03-19T10:00:49.232Z,125
2017-03-19T10:02:00.493Z,115
2017-03-19T10:03:11.728Z,135
2017-03-19T10:04:22.823Z,120
2017-03-19T10:05:33.877Z,115
2017-03-19T10:06:45.108Z,110
2017-03-19T10:07:56.140Z,95
2017-03-19T10:09:07.176Z,95
2017-03-19T10:10:18.201Z,110
2017-03-19T10:11:29.231Z,105
2017-03-19T10:12:40.267Z,110
2017-03-19T10:13:51.507Z,120
2017-03-19T10:15:02.600Z,135
2017-03-19T10:16:14.044Z,145
2017-03-19T10:17:25.103Z,170
2017-03-19T10:18:36.148Z,185
2017-03-19T10:19:47.180Z,160
2017-03-19T10:20:58.215Z,125
2017-03-19T10:22:09.238Z,125
2017-03-19T10:23:20.276Z,125
2017-03-19T10:24:31.308Z,110
2017-03-19T10:25:42.582Z,130
2017-03-19T10:26:53.634Z,95
2017-03-19T10:28:04.671Z,100
2017-03-19T10:29:15.712Z,100
2017-03-19T10:30:26.970Z,90
2017-03-19T10:31:38.000Z,75
2017-03-19T10:32:49.039Z,80
2017-03-19T10:34:00.078Z,95
2017-03-19T10:35:11.111Z,90
2017-03-19T10:36:22.400Z,105
2017-03-19T10:37:33.434Z,80
2017-03-19T10:38:44.467Z,65
2017-03-19T10:39:55.495Z,70
2017-03-19T10:41:06.519Z,70
2017-03-19T10:42:17.750Z,60
2017-03-19T10:43:28.993Z,55
2017-03-19T10:44:40.032Z,55
2017-03-19T10:45:51.310Z,60
2017-03-19T10:47:02.395Z,65
2017-03-19T10:48:13.438Z,60
2017-03-19T10:49:24.683Z,60
2017-03-19T10:50:35.730Z,55
2017-03-19T10:51:47.163Z,65
2017-03-19T10:52:58.191Z,60
2017-03-19T10:54:09.227Z,55
2017-03-19T10:55:20.259Z,55
2017-03-19T10:56:31.354Z,60
2017-03-19T10:57:42.646Z,55
2017-03-19T10:58:53.886Z,65
2017-03-19T11:00:04.926Z,55
2017-03-19T11:01:15.951Z,70
2017-03-19T11:02:26.983Z,80
2017-03-19T11:03:38.427Z,95
2017-03-19T11:04:49.668Z,85
2017-03-19T11:06:00.698Z,80
2017-03-19T11:07:11.720Z,100
2017-03-19T11:08:22.812Z,105
2017-03-19T11:09:33.845Z,115
2017-03-19T11:10:44.870Z,140
2017-03-19T11:11:55.928Z,110
2017-03-19T11:13:07.174Z,90
2017-03-19T11:14:18.415Z,100
2017-03-19T11:15:29.441Z,100
2017-03-19T11:16:40.709Z,90
2017-03-19T11:17:51.748Z,80
2017-03-19T11:19:02.830Z,95
2017-03-19T11:20:14.063Z,90
2017-03-19T11:21:25.296Z,105
2017-03-19T11:22:36.331Z,105
2017-03-19T11:23:47.371Z,105
2017-03-19T11:24:58.730Z,95
2017-03-19T11:26:10.173Z,155
2017-03-19T11:27:21.208Z,205
2017-03-19T11:28:32.248Z,280
2017-03-19T11:29:43.280Z,280
2017-03-19T11:30:54.503Z,265
2017-03-19T11:32:05.531Z,240
2017-03-19T11:33:16.774Z,235
2017-03-19T11:34:28.015Z,240
2017-03-19T11:35:39.040Z,265
2017-03-19T11:36:50.073Z,240
2017-03-19T11:38:01.111Z,270
2017-03-19T11:39:12.342Z,250
2017-03-19T11:40:23.628Z,235
2017-03-19T11:41:34.662Z,170
2017-03-19T11:42:45.696Z,180
2017-03-19T11:43:57.141Z,220
2017-03-19T11:45:08.179Z,165
2017-03-19T11:46:19.204Z,155
2017-03-19T11:47:30.237Z,195
2017-03-19T11:48:41.271Z,135
2017-03-19T11:49:52.307Z,180
2017-03-19T11:51:03.396Z,230
2017-03-19T11:52:14.632Z,250
2017-03-19T11:53:25.671Z,235
2017-03-19T11:54:36.708Z,205
2017-03-19T11:55:47.732Z,190
2017-03-19T11:56:58.800Z,170
2017-03-19T11:58:09.835Z,145
2017-03-19T11:59:20.875Z,100
2017-03-19T12:00:32.126Z,95
2017-03-19T12:01:43.451Z,100
2017-03-19T12:02:54.687Z,105
2017-03-19T12:04:05.716Z,100
2017-03-19T12:05:16.944Z,100
2017-03-19T12:06:28.180Z,100
2017-03-19T12:07:39.312Z,100
2017-03-19T12:08:50.359Z,90
2017-03-19T12:10:01.599Z,85
2017-03-19T12:11:12.635Z,85
2017-03-19T12:12:23.663Z,100
2017-03-19T12:13:34.697Z,90
2017-03-19T12:14:45.734Z,80
2017-03-19T12:15:56.765Z,80
2017-03-19T12:17:08.011Z,65
2017-03-19T12:18:19.300Z,70
2017-03-19T12:19:30.333Z,80
2017-03-19T12:20:41.359Z,105
2017-03-19T12:21:52.594Z,105
2017-03-19T12:23:03.636Z,75
2017-03-19T12:24:14.670Z,70
2017-03-19T12:25:25.697Z,80
2017-03-19T12:26:36.932Z,95
2017-03-19T12:27:48.173Z,105
2017-03-19T12:28:59.448Z,100
2017-03-19T12:30:10.480Z,100
2017-03-19T12:31:21.718Z,105
2017-03-19T12:32:33.155Z,100
2017-03-19T12:33:44.187Z,105
2017-03-19T12:34:55.226Z,100
2017-03-19T12:36:06.252Z,105
2017-03-19T12:37:17.315Z,110
2017-03-19T12:38:28.355Z,100
2017-03-19T12:39:39.647Z,85
2017-03-19T12:40:50.673Z,90
2017-03-19T12:42:01.701Z,90
2017-03-19T12:43:12.740Z,95
2017-03-19T12:44:23.794Z,75
2017-03-19T12:45:34.827Z,70
2017-03-19T12:46:45.857Z,65
2017-03-19T12:47:56.892Z,60
2017-03-19T12:49:07.922Z,65
2017-03-19T12:50:19.002Z,75
2017-03-19T12:51:30.023Z,70
2017-03-19T12:52:41.055Z,70
2017-03-19T12:53:52.093Z,60
2017-03-19T12:55:03.131Z,75
2017-03-19T12:56:14.368Z,90
2017-03-19T12:57:25.397Z,110
2017-03-19T12:58:36.435Z,130
2017-03-19T12:59:47.666Z,110
2017-03-19T13:00:58.690Z,100
2017-03-19T13:02:09.727Z,75
2017-03-19T13:03:20.766Z,80
2017-03-19T13:04:31.794Z,75
2017-03-19T13:05:42.831Z,65
2017-03-19T13:06:54.164Z,60
2017-03-19T13:08:05.225Z,80
2017-03-19T13:09:16.254Z,95
2017-03-19T13:10:27.278Z,115
2017-03-19T13:11:38.311Z,140
2017-03-19T13:12:49.592Z,160
2017-03-19T13:14:00.829Z,160
2017-03-19T13:15:12.058Z,145
2017-03-19T13:16:23.086Z,150
2017-03-19T13:17:34.765Z,170
2017-03-19T13:18:45.799Z,180
2017-03-19T13:19:56.827Z,200
2017-03-19T13:21:07.855Z,275
2017-03-19T13:22:18.895Z,775
2017-03-19T13:23:29.935Z,750
2017-03-19T13:24:41.364Z,520
2017-03-19T13:25:52.387Z,530
2017-03-19T13:27:03.421Z,430
2017-03-19T13:28:15.139Z,350
2017-03-19T13:29:26.176Z,350
2017-03-19T13:30:37.208Z,300
2017-03-19T13:31:48.238Z,275
2017-03-19T13:32:59.285Z,245
2017-03-19T13:34:10.324Z,220
2017-03-19T13:35:21.362Z,165
2017-03-19T13:36:32.595Z,145
2017-03-19T13:37:43.639Z,130
2017-03-19T13:38:54.937Z,205
2017-03-19T13:40:05.983Z,325
2017-03-19T13:41:17.016Z,315
2017-03-19T13:42:28.242Z,260
2017-03-19T13:43:39.495Z,200
2017-03-19T13:44:50.530Z,175
2017-03-19T13:46:01.764Z,175
2017-03-19T13:47:12.797Z,175
2017-03-19T13:48:23.826Z,245
2017-03-19T13:49:34.899Z,265
2017-03-19T13:50:45.980Z,210
2017-03-19T13:51:57.007Z,220
2017-03-19T13:53:08.243Z,200
2017-03-19T13:54:19.277Z,165
2017-03-19T13:55:30.760Z,140
2017-03-19T13:56:41.790Z,125
2017-03-19T13:57:52.830Z,110
2017-03-19T13:59:03.881Z,90
2017-03-19T14:00:14.912Z,85
2017-03-19T14:01:25.946Z,105
2017-03-19T14:02:37.178Z,105
2017-03-19T14:03:48.222Z,95
2017-03-19T14:04:59.259Z,65
2017-03-19T14:06:10.543Z,60
2017-03-19T14:07:21.564Z,75
2017-03-19T14:08:32.602Z,85
2017-03-19T14:09:43.638Z,100
2017-03-19T14:10:54.664Z,125
2017-03-19T14:12:05.701Z,135
2017-03-19T14:13:16.736Z,165
2017-03-19T14:14:27.764Z,215
2017-03-19T14:15:38.792Z,250
2017-03-19T14:16:50.075Z,225
2017-03-19T14:18:01.114Z,195
2017-03-19T14:19:12.139Z,180
2017-03-19T14:20:23.166Z,190
2017-03-19T14:21:34.197Z,185
2017-03-19T14:22:45.230Z,180
2017-03-19T14:23:56.302Z,200
2017-03-19T14:25:07.542Z,200
2017-03-19T14:26:18.568Z,205
2017-03-19T14:27:29.860Z,185
2017-03-19T14:28:41.098Z,175
2017-03-19T14:29:52.331Z,165
2017-03-19T14:31:03.363Z,150
2017-03-19T14:32:14.597Z,140
2017-03-19T14:33:26.043Z,130
2017-03-19T14:34:37.078Z,130
2017-03-19T14:35:48.301Z,125
2017-03-19T14:36:59.529Z,135
2017-03-19T14:38:10.813Z,140
2017-03-19T14:39:21.861Z,135
2017-03-19T14:40:32.890Z,155
2017-03-19T14:41:43.919Z,180
2017-03-19T14:42:54.997Z,205
2017-03-19T14:44:06.041Z,220
2017-03-19T14:45:17.108Z,195
2017-03-19T14:46:28.361Z,185
2017-03-19T14:47:39.394Z,165
2017-03-19T14:48:50.478Z,150
2017-03-19T14:50:01.517Z,135
2017-03-19T14:51:12.747Z,130
2017-03-19T14:52:23.784Z,125
2017-03-19T14:53:34.820Z,135
2017-03-19T14:54:45.846Z,140
2017-03-19T14:55:57.089Z,155
2017-03-19T14:57:08.126Z,160
2017-03-19T14:58:19.175Z,155
2017-03-19T14:59:30.272Z,135
2017-03-19T15:00:41.293Z,130
2017-03-19T15:01:52.365Z,120
2017-03-19T15:03:03.597Z,130
2017-03-19T15:04:14.631Z,150
2017-03-19T15:05:25.661Z,160
2017-03-19T15:06:36.686Z,145
2017-03-19T15:07:48.125Z,130
2017-03-19T15:08:59.154Z,125
2017-03-19T15:10:10.440Z,120
2017-03-19T15:11:21.463Z,105
2017-03-19T15:12:32.506Z,100
2017-03-19T15:13:43.735Z,90
2017-03-19T15:14:54.822Z,90
2017-03-19T15:16:06.051Z,85
2017-03-19T15:17:17.079Z,85
2017-03-19T15:18:28.323Z,80
2017-03-19T15:19:39.347Z,80
2017-03-19T15:20:50.369Z,75
2017-03-19T15:22:01.402Z,85
2017-03-19T15:23:12.489Z,80
2017-03-19T15:24:23.524Z,75
2017-03-19T15:25:34.550Z,75
2017-03-19T15:26:45.588Z,75
2017-03-19T15:27:56.824Z,70
2017-03-19T15:29:07.859Z,65
2017-03-19T15:30:18.889Z,70
2017-03-19T15:31:30.167Z,75
2017-03-19T15:32:41.207Z,75
2017-03-19T15:33:52.446Z,90
2017-03-19T15:35:03.475Z,105
2017-03-19T15:36:14.506Z,95
2017-03-19T15:37:25.544Z,90
2017-03-19T15:38:36.584Z,90
2017-03-19T15:39:47.607Z,80
2017-03-19T15:40:58.641Z,75
2017-03-19T15:42:09.934Z,70
2017-03-19T15:43:20.984Z,80
2017-03-19T15:44:32.008Z,85
2017-03-19T15:45:43.042Z,85
2017-03-19T15:46:54.067Z,80
2017-03-19T15:48:05.106Z,75
2017-03-19T15:49:16.154Z,60
2017-03-19T15:50:27.382Z,55
2017-03-19T15:51:38.620Z,50
2017-03-19T15:52:49.715Z,55
2017-03-19T15:54:00.754Z,55
2017-03-19T15:55:11.782Z,60
2017-03-19T15:56:23.010Z,50
2017-03-19T15:57:34.047Z,50
2017-03-19T15:58:45.079Z,50
2017-03-19T15:59:56.103Z,55
2017-03-19T16:01:07.138Z,60
2017-03-19T16:02:18.172Z,65
2017-03-19T16:03:29.261Z,60
2017-03-19T16:04:40.290Z,50
2017-03-19T16:05:51.329Z,45
2017-03-19T16:07:02.363Z,45
2017-03-19T16:08:13.400Z,40
2017-03-19T16:09:24.447Z,35
2017-03-19T16:10:35.475Z,30
2017-03-19T16:11:46.708Z,30
2017-03-19T16:12:57.941Z,25
2017-03-19T16:14:09.191Z,30
2017-03-19T16:15:20.440Z,30
2017-03-19T16:16:31.478Z,30
2017-03-19T16:17:42.504Z,30
2017-03-19T16:18:53.549Z,30
2017-03-19T16:20:04.633Z,40
2017-03-19T16:21:15.668Z,40
2017-03-19T16:22:26.706Z,40
2017-03-19T16:23:37.794Z,40
2017-03-19T16:24:48.828Z,40
2017-03-19T16:26:00.059Z,40
2017-03-19T16:27:11.286Z,45
2017-03-19T16:28:22.323Z,40
2017-03-19T16:29:33.358Z,45
2017-03-19T16:30:44.633Z,35
2017-03-19T16:31:55.658Z,30
2017-03-19T16:33:06.700Z,30
2017-03-19T16:34:17.741Z,30
2017-03-19T16:35:28.773Z,25
2017-03-19T16:36:40.005Z,25
2017-03-19T16:37:51.042Z,20
2017-03-19T16:39:02.077Z,20
2017-03-19T16:40:13.108Z,20
2017-03-19T16:41:24.391Z,15
2017-03-19T16:42:35.614Z,15
2017-03-19T16:43:46.656Z,15
2017-03-19T16:44:57.695Z,15
2017-03-19T16:46:08.733Z,10
2017-03-19T16:47:19.763Z,10
2017-03-19T16:48:30.805Z,10
2017-03-19T16:49:41.840Z,10
2017-03-19T16:50:52.875Z,10
2017-03-19T16:52:04.164Z,10
2017-03-19T16:53:15.198Z,10
2017-03-19T16:54:26.244Z,10
2017-03-19T16:55:37.467Z,10
2017-03-19T16:56:48.495Z,10
2017-03-19T16:57:59.736Z,5